Main page
METAR-TAF:

METAR-TAF

Airports :

Figari–Sud Corse Airport

Figari, France

latitude: 41-30N, longitude: 009-06E, elevation: 26 m

Current weather observation

The report was made 13 minutes ago, at 09:30 UTC
Wind 19 kt from the Southwest
Temperature 18°C
Humidity 64%
Pressure 1006 hPa
Visibility 10 km or more

METAR: LFKF 190930Z AUTO 23019KT 9999 BKN021/// BKN029/// BKN043/// ///CB 18/11 Q1006 BECMG 26015G25KT SCT030 BKN050

Time: 11:43 (09:43 UTC)

Forecast

The report was made 1 hour and 43 minutes ago, at 08:00 UTC
Forecast valid from 19 at 09 UTC to 20 at 09 UTC
Wind 15 kt from the West with gusts up to 25 kt
Visibility 10 km or more
Scattered clouds at a height of 3000 ft
Broken clouds at a height of 5000 ft
Becoming
from 19 at 17 UTC to 19 at 18 UTC
Wind 10 kt from the West
Temporary
from 20 at 04 UTC to 20 at 09 UTC
Broken clouds at a height of 1200 ft

TAF: LFKF 190800Z 1909/2009 26015G25KT 9999 SCT030 BKN050 BECMG 1917/1918 27010KT TEMPO 2004/2009 BKN012

Weather observations and forecasts of more than 4000 airports (METAR and TAF reports).

The available stations are represented by yellow and red dots on the map.

Hover mouse over dot to see the name of the station.

Then click to see weather observations and forecasts.

To change the map : click on the green buttons with a black cross to zoom in, on the green button with a dash to zoom out, or on the green arrows for adjacent maps.


METAR-TAF: